createdAt,value
2022-12-03T00:01:48.381Z,12.93
2022-12-03T00:04:15.264Z,16.73
2022-12-03T00:06:41.735Z,11.87
2022-12-03T00:09:09.008Z,12.17
2022-12-03T00:11:35.599Z,12.77
2022-12-03T00:14:02.057Z,13.27
2022-12-03T00:16:29.177Z,12.97
2022-12-03T00:18:56.023Z,13.10
2022-12-03T00:21:24.580Z,13.47
2022-12-03T00:23:51.701Z,14.40
2022-12-03T00:26:18.151Z,14.27
2022-12-03T00:28:45.535Z,13.37
2022-12-03T00:31:12.072Z,12.47
2022-12-03T00:33:38.544Z,12.60
2022-12-03T00:36:05.411Z,13.07
2022-12-03T00:38:32.100Z,12.23
2022-12-03T00:41:01.860Z,12.87
2022-12-03T00:43:28.300Z,13.00
2022-12-03T00:45:54.802Z,13.10
2022-12-03T00:48:21.237Z,13.63
2022-12-03T00:50:47.689Z,13.23
2022-12-03T00:53:14.124Z,13.40
2022-12-03T00:55:40.563Z,15.23
2022-12-03T00:58:08.601Z,13.77
2022-12-03T01:00:36.044Z,13.90
2022-12-03T01:03:02.890Z,13.60
2022-12-03T01:05:29.385Z,13.17
2022-12-03T01:07:55.890Z,14.40
2022-12-03T01:10:22.393Z,15.10
2022-12-03T01:12:48.858Z,14.50
2022-12-03T01:15:15.286Z,14.27
2022-12-03T01:17:41.820Z,14.60
2022-12-03T01:20:09.592Z,13.40
2022-12-03T01:22:36.164Z,13.40
2022-12-03T01:25:02.687Z,14.57
2022-12-03T01:27:29.140Z,14.43
2022-12-03T01:29:55.575Z,13.97
2022-12-03T01:32:22.215Z,13.37
2022-12-03T01:34:49.731Z,14.20
2022-12-03T01:37:17.227Z,13.70
2022-12-03T01:39:43.751Z,14.23
2022-12-03T01:42:19.674Z,13.63
2022-12-03T01:44:46.621Z,13.17
2022-12-03T01:47:16.891Z,13.60
2022-12-03T01:49:47.213Z,13.33
2022-12-03T01:52:16.471Z,14.00
2022-12-03T01:54:47.123Z,13.40
2022-12-03T01:57:19.973Z,11.70
2022-12-03T01:59:46.715Z,12.53
2022-12-03T02:02:18.042Z,12.07
2022-12-03T02:04:44.607Z,11.30
2022-12-03T02:07:37.431Z,11.43
2022-12-03T02:10:05.054Z,11.50
2022-12-03T02:12:51.733Z,11.27
2022-12-03T02:15:18.252Z,11.70
2022-12-03T02:17:44.757Z,11.50
2022-12-03T02:20:12.906Z,11.63
2022-12-03T02:23:00.577Z,11.97
2022-12-03T02:25:32.870Z,12.23
2022-12-03T02:28:00.224Z,12.10
2022-12-03T02:30:28.134Z,11.43
2022-12-03T02:32:56.104Z,11.60
2022-12-03T02:35:25.599Z,11.40
2022-12-03T02:37:55.470Z,11.27
2022-12-03T02:40:25.063Z,11.00
2022-12-03T02:42:55.295Z,10.93
2022-12-03T02:45:24.831Z,12.17
2022-12-03T02:47:57.000Z,11.00
2022-12-03T02:50:28.068Z,11.77
2022-12-03T02:52:56.100Z,12.30
2022-12-03T02:55:22.951Z,11.83
2022-12-03T02:57:50.376Z,11.40
2022-12-03T03:00:18.248Z,11.57
2022-12-03T03:02:46.269Z,12.00
2022-12-03T03:05:13.295Z,11.87
2022-12-03T03:07:40.228Z,11.80
2022-12-03T03:10:07.812Z,12.70
2022-12-03T03:12:39.071Z,12.70
2022-12-03T03:15:07.270Z,12.60
2022-12-03T03:17:35.313Z,13.90
2022-12-03T03:20:02.863Z,13.73
2022-12-03T03:22:37.631Z,12.37
2022-12-03T03:25:05.148Z,14.67
2022-12-03T03:27:32.136Z,14.37
2022-12-03T03:29:59.165Z,14.27
2022-12-03T03:32:27.179Z,14.67
2022-12-03T03:34:54.145Z,13.00
2022-12-03T03:37:21.072Z,12.90
2022-12-03T03:39:47.848Z,13.17
2022-12-03T03:42:14.431Z,13.67
2022-12-03T03:44:40.983Z,13.53
2022-12-03T03:47:07.701Z,13.73
2022-12-03T03:49:34.235Z,13.20
2022-12-03T03:52:00.732Z,13.73
2022-12-03T03:54:27.286Z,14.30
2022-12-03T03:56:53.769Z,13.30
2022-12-03T03:59:20.183Z,13.73
2022-12-03T04:01:46.797Z,12.97
2022-12-03T04:04:19.979Z,13.33
2022-12-03T04:06:47.273Z,13.27
2022-12-03T04:09:13.835Z,13.53
2022-12-03T04:11:58.976Z,13.27
2022-12-03T04:14:25.415Z,13.00
2022-12-03T04:16:51.865Z,14.17
2022-12-03T04:19:18.454Z,12.83
2022-12-03T04:22:03.649Z,14.30
2022-12-03T04:24:45.150Z,13.20
2022-12-03T04:27:30.412Z,11.63
2022-12-03T04:29:56.870Z,12.57
2022-12-03T04:32:42.002Z,13.17
2022-12-03T04:35:28.125Z,13.07
2022-12-03T04:37:54.651Z,14.17
2022-12-03T04:40:39.709Z,12.73
2022-12-03T04:43:06.166Z,12.60
2022-12-03T04:45:32.677Z,13.50
2022-12-03T04:47:59.180Z,13.03
2022-12-03T04:50:25.616Z,12.70
2022-12-03T04:52:52.055Z,12.60
2022-12-03T04:55:18.510Z,13.20
2022-12-03T04:57:44.926Z,13.53
2022-12-03T05:00:12.066Z,13.10
2022-12-03T05:02:38.539Z,11.80
2022-12-03T05:05:05.388Z,12.50
2022-12-03T05:07:31.870Z,12.80
2022-12-03T05:09:58.361Z,12.10
2022-12-03T05:12:24.802Z,12.80
2022-12-03T05:14:51.552Z,13.53
2022-12-03T05:17:18.366Z,12.83
2022-12-03T05:20:03.514Z,12.97
2022-12-03T05:22:29.948Z,13.17
2022-12-03T05:24:56.762Z,13.50
2022-12-03T05:27:24.258Z,13.37
2022-12-03T05:29:51.365Z,12.77
2022-12-03T05:32:17.857Z,12.47
2022-12-03T05:34:44.320Z,13.23
2022-12-03T05:37:11.075Z,12.40
2022-12-03T05:39:37.731Z,15.30
2022-12-03T05:42:22.814Z,13.80
2022-12-03T05:44:49.320Z,19.83
2022-12-03T05:47:15.761Z,12.80
2022-12-03T05:49:42.316Z,13.73
2022-12-03T05:52:08.760Z,12.67
2022-12-03T05:54:35.234Z,12.80
2022-12-03T05:57:01.683Z,14.53
2022-12-03T05:59:28.121Z,13.03
2022-12-03T06:01:54.571Z,13.80
2022-12-03T06:04:21.040Z,15.43
2022-12-03T06:06:47.480Z,13.57
2022-12-03T06:09:13.940Z,12.63
2022-12-03T06:11:41.281Z,13.37
2022-12-03T06:14:07.979Z,13.53
2022-12-03T06:16:34.480Z,14.03
2022-12-03T06:19:01.048Z,14.07
2022-12-03T06:21:27.505Z,13.93
2022-12-03T06:23:53.944Z,13.80
2022-12-03T06:26:20.375Z,13.90
2022-12-03T06:28:49.105Z,14.20
2022-12-03T06:31:15.857Z,13.93
2022-12-03T06:33:42.455Z,14.10
2022-12-03T06:36:09.054Z,13.77
2022-12-03T06:38:35.504Z,13.27
2022-12-03T06:41:01.944Z,14.10
2022-12-03T06:43:28.376Z,14.70
2022-12-03T06:45:54.828Z,14.20
2022-12-03T06:48:21.279Z,14.13
2022-12-03T06:50:47.777Z,14.20
2022-12-03T06:53:14.201Z,14.57
2022-12-03T06:55:40.668Z,13.93
2022-12-03T06:58:07.147Z,13.90
2022-12-03T07:00:33.598Z,13.33
2022-12-03T07:03:00.107Z,13.20
2022-12-03T07:05:26.738Z,14.33
2022-12-03T07:07:55.328Z,14.60
2022-12-03T07:10:22.334Z,16.13
2022-12-03T07:12:48.758Z,16.60
2022-12-03T07:15:15.238Z,16.40
2022-12-03T07:17:41.684Z,16.43
2022-12-03T07:20:09.043Z,16.20
2022-12-03T07:22:35.485Z,16.83
2022-12-03T07:25:02.009Z,17.80
2022-12-03T07:27:28.430Z,16.90
2022-12-03T07:29:54.880Z,16.60
2022-12-03T07:32:21.326Z,17.47
2022-12-03T07:34:47.779Z,18.37
2022-12-03T07:37:17.507Z,17.57
2022-12-03T07:39:46.516Z,15.70
2022-12-03T07:42:13.010Z,17.13
2022-12-03T07:44:39.469Z,16.97
2022-12-03T07:47:06.050Z,15.40
2022-12-03T07:49:32.883Z,15.83
2022-12-03T07:51:59.326Z,16.50
2022-12-03T07:54:26.260Z,15.67
2022-12-03T07:56:57.955Z,17.03
2022-12-03T07:59:28.690Z,16.30
2022-12-03T08:01:55.183Z,17.17
2022-12-03T08:04:21.748Z,17.20
2022-12-03T08:06:48.870Z,16.33
2022-12-03T08:09:16.455Z,16.63
2022-12-03T08:11:45.492Z,16.73
2022-12-03T08:14:17.212Z,17.90
2022-12-03T08:16:45.262Z,18.37
2022-12-03T08:19:13.831Z,19.03
2022-12-03T08:21:40.771Z,16.63
2022-12-03T08:24:14.896Z,17.63
2022-12-03T08:26:44.045Z,18.07
2022-12-03T08:29:12.467Z,18.40
2022-12-03T08:31:39.756Z,32.80
2022-12-03T08:34:19.446Z,47.03
2022-12-03T08:36:47.216Z,30.10
2022-12-03T08:39:33.851Z,46.17
2022-12-03T08:42:32.143Z,25.20
2022-12-03T08:45:29.712Z,18.27
2022-12-03T08:48:00.698Z,18.93
2022-12-03T08:50:28.252Z,19.80
2022-12-03T08:52:58.326Z,19.17
2022-12-03T08:55:38.616Z,17.93
2022-12-03T08:58:28.116Z,19.10
2022-12-03T09:01:11.259Z,20.73
2022-12-03T09:03:48.376Z,19.87
2022-12-03T09:06:14.872Z,19.00
2022-12-03T09:08:41.326Z,18.97
2022-12-03T09:11:07.818Z,19.20
2022-12-03T09:13:34.342Z,19.40
2022-12-03T09:16:00.813Z,20.43
2022-12-03T09:18:27.255Z,20.00
2022-12-03T09:20:53.698Z,18.60
2022-12-03T09:23:20.132Z,20.00
2022-12-03T09:25:46.597Z,18.93
2022-12-03T09:28:13.075Z,20.63
2022-12-03T09:30:39.560Z,20.20
2022-12-03T09:33:06.013Z,22.13
2022-12-03T09:35:32.561Z,23.07
2022-12-03T09:37:59.041Z,21.93
2022-12-03T09:40:25.545Z,21.03
2022-12-03T09:42:52.094Z,21.90
2022-12-03T09:45:18.608Z,29.03
2022-12-03T09:47:47.256Z,24.20
2022-12-03T09:50:15.808Z,29.67
2022-12-03T09:52:42.484Z,28.40
2022-12-03T09:55:17.786Z,24.30
2022-12-03T09:57:44.443Z,21.67
2022-12-03T10:00:19.245Z,20.40
2022-12-03T10:02:46.867Z,20.50
2022-12-03T10:05:14.626Z,20.67
2022-12-03T10:07:42.041Z,20.47
2022-12-03T10:10:18.471Z,18.87
2022-12-03T10:12:45.214Z,19.90
2022-12-03T10:15:13.403Z,19.37
2022-12-03T10:17:39.929Z,19.57
2022-12-03T10:20:07.726Z,18.87
2022-12-03T10:22:37.327Z,18.83
2022-12-03T10:25:07.767Z,18.47
2022-12-03T10:27:34.300Z,18.50
2022-12-03T10:30:03.887Z,18.83
2022-12-03T10:32:45.555Z,19.37
2022-12-03T10:35:17.980Z,19.70
2022-12-03T10:38:05.263Z,19.13
2022-12-03T10:40:37.328Z,19.93
2022-12-03T10:43:23.646Z,23.10
2022-12-03T10:46:00.474Z,19.97
2022-12-03T10:48:30.126Z,21.60
2022-12-03T10:51:02.268Z,22.40
2022-12-03T10:53:34.017Z,20.50
2022-12-03T10:56:03.048Z,23.60
2022-12-03T10:58:31.466Z,20.70
2022-12-03T11:00:59.107Z,19.37
2022-12-03T11:03:27.914Z,18.13
2022-12-03T11:05:55.465Z,18.73
2022-12-03T11:08:24.548Z,19.07
2022-12-03T11:11:03.080Z,18.13
2022-12-03T11:13:32.742Z,18.03
2022-12-03T11:16:00.652Z,19.47
2022-12-03T11:18:36.325Z,19.80
2022-12-03T11:21:08.833Z,20.27
2022-12-03T11:23:44.402Z,19.63
2022-12-03T11:26:19.785Z,19.60
2022-12-03T11:28:46.507Z,19.90
2022-12-03T11:31:39.262Z,19.73
2022-12-03T11:34:18.019Z,20.03
2022-12-03T11:37:12.417Z,19.30
2022-12-03T11:39:45.215Z,19.90
2022-12-03T11:42:26.933Z,18.30
2022-12-03T11:45:02.591Z,18.53
2022-12-03T11:47:36.591Z,19.40
2022-12-03T11:50:17.763Z,19.73
2022-12-03T11:52:46.799Z,18.43
2022-12-03T11:55:17.992Z,18.97
2022-12-03T11:57:44.522Z,19.93
2022-12-03T12:00:21.460Z,18.37
2022-12-03T12:02:49.091Z,20.00
2022-12-03T12:05:20.898Z,18.80
2022-12-03T12:07:48.214Z,18.60
2022-12-03T12:10:44.891Z,19.30
2022-12-03T12:13:30.133Z,21.03
2022-12-03T12:15:57.784Z,26.07
2022-12-03T12:18:41.507Z,19.00
2022-12-03T12:21:43.119Z,19.03
2022-12-03T12:24:31.484Z,17.67
2022-12-03T12:27:00.526Z,17.93
2022-12-03T12:29:27.500Z,18.60
2022-12-03T12:32:06.117Z,18.67
2022-12-03T12:34:33.029Z,17.57
2022-12-03T12:37:00.331Z,17.20
2022-12-03T12:39:26.925Z,17.63
2022-12-03T12:41:54.461Z,17.43
2022-12-03T12:44:23.557Z,18.20
2022-12-03T12:46:52.618Z,18.33
2022-12-03T12:49:23.479Z,19.23
2022-12-03T12:51:50.622Z,18.73
2022-12-03T12:54:20.396Z,19.73
2022-12-03T12:56:49.943Z,17.47
2022-12-03T12:59:20.906Z,20.17
2022-12-03T13:01:49.228Z,18.67
2022-12-03T13:04:21.815Z,21.87
2022-12-03T13:06:50.478Z,18.03
2022-12-03T13:09:20.543Z,18.80
2022-12-03T13:12:00.222Z,19.87
2022-12-03T13:14:32.139Z,18.97
2022-12-03T13:17:01.325Z,18.63
2022-12-03T13:19:29.672Z,18.03
2022-12-03T13:21:57.672Z,18.60
2022-12-03T13:24:37.254Z,17.00
2022-12-03T13:27:23.067Z,18.17
2022-12-03T13:29:54.719Z,16.70
2022-12-03T13:32:32.404Z,16.53
2022-12-03T13:35:23.482Z,17.00
2022-12-03T13:37:50.060Z,17.33
2022-12-03T13:40:30.805Z,17.73
2022-12-03T13:42:58.428Z,18.57
2022-12-03T13:45:31.033Z,16.83
2022-12-03T13:48:01.906Z,17.83
2022-12-03T13:50:39.846Z,18.40
2022-12-03T13:53:31.833Z,18.00
2022-12-03T13:56:09.231Z,17.03
2022-12-03T13:58:35.662Z,17.77
2022-12-03T14:01:02.168Z,18.53
2022-12-03T14:03:28.620Z,17.07
2022-12-03T14:05:55.064Z,17.40
2022-12-03T14:08:21.571Z,21.70
2022-12-03T14:10:48.046Z,20.23
2022-12-03T14:13:14.454Z,18.33
2022-12-03T14:15:40.907Z,19.97
2022-12-03T14:18:07.334Z,18.60
2022-12-03T14:20:34.994Z,18.00
2022-12-03T14:23:01.426Z,17.50
2022-12-03T14:25:27.923Z,18.23
2022-12-03T14:27:54.424Z,19.20
2022-12-03T14:30:21.226Z,17.73
2022-12-03T14:32:47.687Z,18.93
2022-12-03T14:35:14.225Z,17.90
2022-12-03T14:37:40.640Z,18.77
2022-12-03T14:40:09.074Z,18.13
2022-12-03T14:42:36.496Z,18.73
2022-12-03T14:45:03.692Z,18.63
2022-12-03T14:47:33.418Z,18.23
2022-12-03T14:50:00.594Z,19.20
2022-12-03T14:52:27.223Z,17.97
2022-12-03T14:54:53.724Z,17.00
2022-12-03T14:57:20.241Z,18.23
2022-12-03T14:59:47.284Z,19.93
2022-12-03T15:02:14.118Z,17.87
2022-12-03T15:04:41.218Z,18.57
2022-12-03T15:07:08.017Z,17.90
2022-12-03T15:09:34.651Z,17.40
2022-12-03T15:12:01.404Z,29.93
2022-12-03T15:14:28.001Z,18.77
2022-12-03T15:16:54.663Z,21.73
2022-12-03T15:19:21.355Z,21.20
2022-12-03T15:21:47.832Z,19.50
2022-12-03T15:24:14.333Z,19.73
2022-12-03T15:26:40.770Z,21.40
2022-12-03T15:29:07.254Z,21.17
2022-12-03T15:31:33.890Z,22.40
2022-12-03T15:34:00.375Z,21.47
2022-12-03T15:36:26.851Z,19.67
2022-12-03T15:38:53.354Z,20.90
2022-12-03T15:41:29.022Z,19.83
2022-12-03T15:43:57.565Z,17.70
2022-12-03T15:46:24.317Z,19.07
2022-12-03T15:48:50.824Z,18.43
2022-12-03T15:51:17.532Z,25.63
2022-12-03T15:53:43.963Z,19.60
2022-12-03T15:56:12.084Z,31.47
2022-12-03T15:58:39.668Z,29.73
2022-12-03T16:01:06.598Z,22.80
2022-12-03T16:03:33.163Z,19.83
2022-12-03T16:05:59.711Z,19.47
2022-12-03T16:08:26.939Z,19.37
2022-12-03T16:10:53.441Z,18.80
2022-12-03T16:13:19.907Z,19.53
2022-12-03T16:15:46.380Z,19.50
2022-12-03T16:18:12.843Z,21.33
2022-12-03T16:20:39.340Z,21.47
2022-12-03T16:23:05.819Z,24.30
2022-12-03T16:25:32.308Z,22.97
2022-12-03T16:27:58.801Z,22.47
2022-12-03T16:30:25.300Z,21.77
2022-12-03T16:32:51.846Z,20.13
2022-12-03T16:35:18.442Z,21.07
2022-12-03T16:37:44.923Z,19.83
2022-12-03T16:40:12.143Z,22.00
2022-12-03T16:42:38.670Z,23.20
2022-12-03T16:45:08.422Z,24.90
2022-12-03T16:47:35.989Z,23.50
2022-12-03T16:50:03.811Z,24.57
2022-12-03T16:52:30.292Z,23.30
2022-12-03T16:54:56.727Z,23.23
2022-12-03T16:57:23.190Z,25.60
2022-12-03T16:59:49.618Z,25.13
2022-12-03T17:02:16.243Z,25.43
2022-12-03T17:04:42.710Z,23.30
2022-12-03T17:07:09.176Z,23.53
2022-12-03T17:09:35.591Z,21.30
2022-12-03T17:12:02.044Z,20.10
2022-12-03T17:14:33.032Z,22.23
2022-12-03T17:16:59.844Z,20.67
2022-12-03T17:19:26.288Z,20.33
2022-12-03T17:21:54.093Z,20.63
2022-12-03T17:24:21.442Z,22.90
2022-12-03T17:26:48.051Z,24.10
2022-12-03T17:29:14.542Z,22.90
2022-12-03T17:31:42.493Z,24.37
2022-12-03T17:34:09.587Z,21.53
2022-12-03T17:36:36.077Z,25.50
2022-12-03T17:39:02.583Z,24.20
2022-12-03T17:41:29.043Z,23.10
2022-12-03T17:43:55.485Z,21.60
2022-12-03T17:46:22.048Z,20.17
2022-12-03T17:48:48.500Z,23.83
2022-12-03T17:51:15.034Z,22.50
2022-12-03T17:53:41.471Z,23.50
2022-12-03T17:56:08.007Z,21.47
2022-12-03T17:58:34.762Z,25.53
2022-12-03T18:01:03.114Z,21.63
2022-12-03T18:03:30.156Z,22.27
2022-12-03T18:05:56.754Z,18.43
2022-12-03T18:08:23.396Z,23.23
2022-12-03T18:10:50.241Z,25.20
2022-12-03T18:13:16.779Z,20.30
2022-12-03T18:15:43.345Z,18.73
2022-12-03T18:18:09.910Z,21.20
2022-12-03T18:20:36.515Z,19.20
2022-12-03T18:23:03.152Z,19.63
2022-12-03T18:25:29.762Z,19.47
2022-12-03T18:27:56.925Z,19.63
2022-12-03T18:30:23.492Z,20.67
2022-12-03T18:32:50.700Z,19.67
2022-12-03T18:35:18.036Z,19.53
2022-12-03T18:37:44.683Z,19.77
2022-12-03T18:40:20.113Z,18.77
2022-12-03T18:42:47.047Z,17.73
2022-12-03T18:45:15.210Z,19.27
2022-12-03T18:47:42.243Z,19.07
2022-12-03T18:50:09.583Z,17.83
2022-12-03T18:52:36.299Z,18.67
2022-12-03T18:55:03.520Z,19.10
2022-12-03T18:57:29.972Z,17.30
2022-12-03T18:59:56.556Z,19.20
2022-12-03T19:05:10.028Z,18.47
2022-12-03T19:07:36.963Z,19.43
2022-12-03T19:10:04.568Z,19.83
2022-12-03T19:12:31.246Z,18.47
2022-12-03T19:14:58.773Z,18.23
2022-12-03T19:17:27.109Z,17.43
2022-12-03T19:19:54.278Z,17.33
2022-12-03T19:22:21.313Z,17.43
2022-12-03T19:24:47.767Z,15.67
2022-12-03T19:27:14.330Z,16.83
2022-12-03T19:29:40.832Z,14.40
2022-12-03T19:32:07.544Z,14.87
2022-12-03T19:34:37.072Z,15.27
2022-12-03T19:37:03.590Z,15.77
2022-12-03T19:39:30.052Z,14.23
2022-12-03T19:41:56.553Z,14.90
2022-12-03T19:44:23.105Z,13.63
2022-12-03T19:46:50.124Z,15.13
2022-12-03T19:49:18.613Z,15.00
2022-12-03T19:51:45.143Z,15.70
2022-12-03T19:54:11.660Z,15.40
2022-12-03T19:56:38.659Z,16.87
2022-12-03T19:59:05.479Z,15.63
2022-12-03T20:01:33.585Z,15.60
2022-12-03T20:04:01.944Z,14.97
2022-12-03T20:06:31.403Z,14.83
2022-12-03T20:09:03.974Z,14.90
2022-12-03T20:11:32.178Z,15.33
2022-12-03T20:14:10.513Z,15.83
2022-12-03T20:16:37.367Z,15.53
2022-12-03T20:19:06.731Z,14.13
2022-12-03T20:21:35.513Z,16.07
2022-12-03T20:24:02.718Z,13.87
2022-12-03T20:26:29.208Z,14.47
2022-12-03T20:28:56.877Z,15.93
2022-12-03T20:31:25.875Z,16.20
2022-12-03T20:33:54.982Z,16.83
2022-12-03T20:36:22.786Z,19.17
2022-12-03T20:38:53.771Z,19.90
2022-12-03T20:41:20.795Z,19.33
2022-12-03T20:43:47.916Z,20.27
2022-12-03T20:46:20.301Z,20.07
2022-12-03T20:48:47.292Z,19.20
2022-12-03T20:51:19.097Z,19.30
2022-12-03T20:53:46.061Z,17.33
2022-12-03T20:56:22.181Z,18.17
2022-12-03T20:58:49.728Z,18.80
2022-12-03T21:01:19.336Z,16.97
2022-12-03T21:03:46.570Z,17.93
2022-12-03T21:06:14.118Z,18.63
2022-12-03T21:08:42.472Z,19.07
2022-12-03T21:11:14.905Z,18.20
2022-12-03T21:13:43.511Z,19.07
2022-12-03T21:16:12.762Z,18.00
2022-12-03T21:18:39.531Z,20.13
2022-12-03T21:21:06.137Z,22.93
2022-12-03T21:23:33.733Z,22.83
2022-12-03T21:26:12.321Z,22.30
2022-12-03T21:28:40.849Z,21.07
2022-12-03T21:31:10.072Z,22.43
2022-12-03T21:33:37.316Z,23.10
2022-12-03T21:36:06.618Z,22.23
2022-12-03T21:38:33.944Z,24.70
2022-12-03T21:41:01.348Z,23.20
2022-12-03T21:43:28.211Z,24.27
2022-12-03T21:45:54.763Z,24.53
2022-12-03T21:48:21.845Z,25.80
2022-12-03T21:51:03.608Z,26.77
2022-12-03T21:53:32.132Z,27.57
2022-12-03T21:55:59.035Z,25.43
2022-12-03T21:58:25.619Z,28.73
2022-12-03T22:00:52.170Z,28.13
2022-12-03T22:03:18.616Z,28.17
2022-12-03T22:05:45.118Z,28.87
2022-12-03T22:08:13.735Z,27.43
2022-12-03T22:10:40.433Z,26.23
2022-12-03T22:13:06.900Z,25.13
2022-12-03T22:15:33.535Z,29.17
2022-12-03T22:18:00.073Z,27.67
2022-12-03T22:20:26.875Z,27.60
2022-12-03T22:22:53.366Z,46.50
2022-12-03T22:25:19.823Z,35.03
2022-12-03T22:27:46.259Z,30.53
2022-12-03T22:30:12.828Z,28.83
2022-12-03T22:32:39.319Z,28.57
2022-12-03T22:35:06.219Z,27.47
2022-12-03T22:37:32.889Z,27.60
2022-12-03T22:39:59.446Z,26.07
2022-12-03T22:42:25.904Z,28.30
2022-12-03T22:44:52.351Z,27.77
2022-12-03T22:47:18.809Z,28.13
2022-12-03T22:49:45.257Z,27.77
2022-12-03T22:52:11.722Z,27.87
2022-12-03T22:54:38.156Z,27.03
2022-12-03T22:57:04.656Z,27.47
2022-12-03T22:59:31.144Z,29.20
2022-12-03T23:01:58.131Z,27.10
2022-12-03T23:04:25.128Z,28.67
2022-12-03T23:06:51.607Z,27.77
2022-12-03T23:09:18.311Z,28.13
2022-12-03T23:11:45.460Z,27.93
2022-12-03T23:14:12.888Z,26.93
2022-12-03T23:16:39.592Z,28.17
2022-12-03T23:19:06.427Z,27.47
2022-12-03T23:21:34.903Z,30.03
2022-12-03T23:24:03.696Z,29.27
2022-12-03T23:26:30.516Z,28.47
2022-12-03T23:28:57.074Z,26.33
2022-12-03T23:31:26.567Z,27.23
2022-12-03T23:33:53.620Z,27.37
2022-12-03T23:36:21.256Z,27.13
2022-12-03T23:38:47.833Z,28.30
2022-12-03T23:41:16.327Z,27.80
2022-12-03T23:43:43.160Z,31.13
2022-12-03T23:46:17.913Z,27.83
2022-12-03T23:48:45.576Z,27.60
2022-12-03T23:51:20.797Z,27.80
2022-12-03T23:53:47.672Z,25.97
2022-12-03T23:56:16.971Z,26.27
2022-12-03T23:58:44.334Z,26.20
